createdAt,value
2018-02-23T00:00:22.332Z,39.95
2018-02-23T00:02:49.714Z,39.85
2018-02-23T00:05:17.108Z,39.92
2018-02-23T00:07:47.302Z,40.37
2018-02-23T00:10:14.706Z,39.75
2018-02-23T00:12:42.087Z,39.64
2018-02-23T00:15:09.474Z,39.24
2018-02-23T00:17:36.878Z,39.58
2018-02-23T00:20:04.274Z,39.81
2018-02-23T00:22:41.615Z,40.01
2018-02-23T00:25:09.147Z,39.91
2018-02-23T00:27:36.533Z,40.76
2018-02-23T00:30:03.893Z,39.88
2018-02-23T00:32:31.281Z,39.98
2018-02-23T00:34:58.711Z,39.88
2018-02-23T00:37:26.079Z,40.26
2018-02-23T00:39:53.461Z,40.35
2018-02-23T00:42:21.086Z,40.62
2018-02-23T00:44:48.466Z,40.11
2018-02-23T00:47:16.030Z,40.45
2018-02-23T00:49:43.398Z,40.31
2018-02-23T00:52:10.832Z,40.23
2018-02-23T00:54:38.261Z,40.46
2018-02-23T00:57:05.703Z,39.85
2018-02-23T00:59:33.062Z,40.59
2018-02-23T01:02:00.751Z,40.77
2018-02-23T01:04:28.177Z,40.14
2018-02-23T01:06:55.539Z,40.51
2018-02-23T01:09:23.002Z,40.78
2018-02-23T01:11:50.385Z,40.92
2018-02-23T01:14:18.465Z,40.74
2018-02-23T01:16:46.136Z,40.03
2018-02-23T01:19:13.541Z,39.71
2018-02-23T01:21:40.914Z,39.33
2018-02-23T01:24:08.651Z,40.23
2018-02-23T01:26:36.060Z,40.14
2018-02-23T01:29:03.501Z,40.24
2018-02-23T01:31:30.981Z,40.03
2018-02-23T01:33:58.383Z,40.49
2018-02-23T01:36:25.758Z,40.46
2018-02-23T01:38:53.164Z,40.52
2018-02-23T01:41:20.725Z,40.14
2018-02-23T01:43:48.119Z,39.81
2018-02-23T01:46:16.305Z,40.19
2018-02-23T01:48:43.699Z,39.89
2018-02-23T01:51:11.440Z,40.61
2018-02-23T01:53:38.981Z,40.10
2018-02-23T01:56:06.668Z,40.63
2018-02-23T01:58:34.284Z,40.33
2018-02-23T02:01:01.727Z,40.26
2018-02-23T02:03:29.106Z,40.02
2018-02-23T02:05:56.501Z,40.01
2018-02-23T02:08:23.882Z,40.54
2018-02-23T02:10:51.316Z,40.55
2018-02-23T02:13:18.691Z,40.38
2018-02-23T02:15:46.315Z,40.36
2018-02-23T02:18:13.703Z,40.09
2018-02-23T02:20:41.069Z,40.78
2018-02-23T02:23:08.459Z,40.59
2018-02-23T02:25:35.853Z,40.81
2018-02-23T02:28:05.307Z,40.00
2018-02-23T02:30:32.758Z,40.42
2018-02-23T02:33:00.182Z,40.50
2018-02-23T02:35:27.733Z,40.35
2018-02-23T02:37:55.102Z,40.68
2018-02-23T02:40:22.724Z,40.98
2018-02-23T02:42:50.158Z,41.01
2018-02-23T02:45:17.831Z,40.60
2018-02-23T02:47:45.590Z,40.79
2018-02-23T02:50:13.088Z,39.91
2018-02-23T02:52:40.504Z,41.01
2018-02-23T02:55:08.096Z,40.21
2018-02-23T02:57:35.467Z,40.34
2018-02-23T03:00:02.982Z,40.61
2018-02-23T03:02:30.398Z,40.37
2018-02-23T03:04:57.791Z,40.90
2018-02-23T03:07:25.216Z,40.73
2018-02-23T03:09:52.641Z,41.12
2018-02-23T03:12:20.067Z,41.03
2018-02-23T03:14:47.461Z,41.18
2018-02-23T03:17:14.901Z,40.07
2018-02-23T03:19:42.342Z,39.97
2018-02-23T03:22:09.902Z,40.12
2018-02-23T03:24:37.284Z,40.06
2018-02-23T03:27:04.877Z,40.25
2018-02-23T03:29:32.267Z,41.15
2018-02-23T03:31:59.637Z,40.84
2018-02-23T03:34:27.309Z,40.73
2018-02-23T03:36:55.061Z,40.85
2018-02-23T03:39:22.481Z,40.40
2018-02-23T03:41:49.890Z,40.87
2018-02-23T03:44:17.268Z,40.54
2018-02-23T03:46:44.654Z,41.07
2018-02-23T03:49:12.094Z,40.95
2018-02-23T03:51:39.500Z,40.65
2018-02-23T03:54:06.877Z,40.63
2018-02-23T03:56:34.242Z,41.23
2018-02-23T03:59:01.640Z,40.81
2018-02-23T04:01:29.187Z,41.20
2018-02-23T04:03:56.642Z,40.72
2018-02-23T04:06:24.038Z,41.05
2018-02-23T04:08:51.425Z,40.35
2018-02-23T04:11:18.864Z,40.08
2018-02-23T04:13:46.850Z,40.12
2018-02-23T04:16:14.218Z,39.99
2018-02-23T04:18:41.599Z,40.46
2018-02-23T04:21:08.965Z,41.10
2018-02-23T04:23:36.616Z,40.77
2018-02-23T04:26:03.978Z,40.72
2018-02-23T04:28:31.443Z,40.38
2018-02-23T04:30:58.774Z,41.14
2018-02-23T04:33:26.272Z,40.66
2018-02-23T04:35:53.633Z,41.22
2018-02-23T04:38:21.593Z,40.41
2018-02-23T04:40:48.978Z,40.47
2018-02-23T04:43:17.060Z,40.18
2018-02-23T04:45:44.477Z,40.96
2018-02-23T04:48:11.844Z,40.85
2018-02-23T04:50:39.275Z,40.75
2018-02-23T04:53:06.679Z,41.29
2018-02-23T04:55:34.062Z,40.83
2018-02-23T04:58:01.470Z,40.77
2018-02-23T05:00:28.830Z,41.45
2018-02-23T05:02:56.342Z,41.12
2018-02-23T05:05:23.718Z,40.95
2018-02-23T05:07:51.118Z,41.21
2018-02-23T05:10:18.560Z,42.01
2018-02-23T05:12:45.985Z,42.04
2018-02-23T05:15:14.371Z,41.86
2018-02-23T05:17:41.749Z,41.67
2018-02-23T05:20:09.122Z,41.49
2018-02-23T05:22:36.487Z,41.52
2018-02-23T05:25:04.935Z,41.52
2018-02-23T05:27:32.449Z,42.96
2018-02-23T05:29:59.885Z,42.23
2018-02-23T05:32:27.266Z,42.17
2018-02-23T05:34:54.636Z,42.12
2018-02-23T05:37:22.035Z,41.82
2018-02-23T05:39:49.418Z,42.27
2018-02-23T05:42:17.290Z,42.19
2018-02-23T05:44:44.674Z,41.98
2018-02-23T05:47:12.062Z,41.64
2018-02-23T05:49:39.430Z,42.17
2018-02-23T05:52:06.815Z,42.48
2018-02-23T05:54:34.234Z,42.46
2018-02-23T05:57:01.618Z,42.57
2018-02-23T05:59:29.049Z,42.51
2018-02-23T06:01:56.409Z,41.71
2018-02-23T06:04:23.992Z,42.94
2018-02-23T06:06:51.357Z,42.47
2018-02-23T06:09:18.751Z,42.70
2018-02-23T06:11:46.231Z,43.15
2018-02-23T06:14:13.972Z,42.15
2018-02-23T06:16:41.361Z,42.72
2018-02-23T06:19:08.754Z,42.73
2018-02-23T06:21:36.142Z,42.74
2018-02-23T06:24:03.518Z,42.69
2018-02-23T06:26:30.902Z,42.37
2018-02-23T06:28:58.298Z,42.52
2018-02-23T06:31:25.705Z,42.32
2018-02-23T06:33:53.090Z,43.04
2018-02-23T06:36:20.574Z,43.41
2018-02-23T06:38:47.950Z,42.61
2018-02-23T06:41:15.359Z,43.46
2018-02-23T06:43:42.739Z,42.84
2018-02-23T06:46:10.118Z,42.78
2018-02-23T06:48:38.293Z,42.62
2018-02-23T06:51:05.697Z,42.55
2018-02-23T06:53:33.086Z,42.40
2018-02-23T06:56:00.466Z,42.47
2018-02-23T06:58:27.841Z,42.26
2018-02-23T07:00:55.359Z,42.47
2018-02-23T07:03:22.774Z,42.69
2018-02-23T07:05:50.248Z,43.02
2018-02-23T07:08:17.721Z,42.99
2018-02-23T07:10:45.144Z,43.61
2018-02-23T07:13:12.515Z,43.09
2018-02-23T07:15:39.902Z,43.10
2018-02-23T07:18:07.405Z,42.09
2018-02-23T07:20:34.734Z,42.31
2018-02-23T07:23:02.229Z,42.28
2018-02-23T07:25:29.625Z,42.14
2018-02-23T07:27:57.012Z,42.02
2018-02-23T07:30:24.419Z,41.49
2018-02-23T07:32:51.817Z,41.50
2018-02-23T07:35:19.203Z,41.52
2018-02-23T07:37:46.599Z,41.74
2018-02-23T07:40:14.174Z,41.99
2018-02-23T07:42:41.586Z,41.69
2018-02-23T07:45:09.031Z,41.99
2018-02-23T07:47:36.400Z,42.11
2018-02-23T07:50:03.790Z,41.62
2018-02-23T07:52:31.202Z,41.92
2018-02-23T07:54:58.607Z,41.55
2018-02-23T07:57:27.122Z,41.41
2018-02-23T07:59:54.718Z,41.15
2018-02-23T08:02:22.089Z,41.31
2018-02-23T08:04:49.470Z,41.43
2018-02-23T08:07:16.893Z,41.26
2018-02-23T08:09:44.282Z,40.88
2018-02-23T08:12:11.662Z,40.14
2018-02-23T08:14:39.073Z,40.18
2018-02-23T08:17:06.487Z,40.26
2018-02-23T08:19:34.009Z,40.25
2018-02-23T08:22:01.425Z,40.37
2018-02-23T08:24:28.808Z,40.18
2018-02-23T08:26:56.232Z,39.88
2018-02-23T08:29:23.611Z,40.23
2018-02-23T08:31:51.933Z,39.97
2018-02-23T08:34:19.325Z,39.88
2018-02-23T08:36:46.697Z,40.20
2018-02-23T08:39:14.078Z,39.48
2018-02-23T08:41:41.512Z,39.53
2018-02-23T08:44:08.923Z,39.41
2018-02-23T08:46:36.341Z,39.48
2018-02-23T08:49:03.757Z,39.51
2018-02-23T08:51:31.154Z,39.86
2018-02-23T08:53:58.557Z,39.68
2018-02-23T08:56:26.041Z,39.39
2018-02-23T08:58:53.418Z,39.43
2018-02-23T09:01:20.852Z,38.89
2018-02-23T09:03:48.342Z,38.85
2018-02-23T09:06:15.743Z,38.64
2018-02-23T09:08:43.209Z,38.43
2018-02-23T09:11:10.685Z,38.13
2018-02-23T09:13:38.060Z,38.64
2018-02-23T09:16:05.438Z,37.88
2018-02-23T09:18:32.854Z,37.94
2018-02-23T09:21:00.915Z,38.29
2018-02-23T09:23:28.528Z,38.02
2018-02-23T09:25:55.907Z,38.02
2018-02-23T09:28:23.348Z,37.58
2018-02-23T09:30:52.169Z,37.75
2018-02-23T09:33:19.559Z,37.54
2018-02-23T09:35:46.962Z,37.15
2018-02-23T09:38:14.346Z,36.68
2018-02-23T09:40:41.737Z,36.67
2018-02-23T09:43:09.107Z,36.19
2018-02-23T09:45:36.543Z,36.39
2018-02-23T09:48:03.990Z,36.57
2018-02-23T09:50:31.345Z,36.25
2018-02-23T09:52:58.737Z,36.21
2018-02-23T09:55:26.201Z,36.32
2018-02-23T09:57:53.583Z,36.13
2018-02-23T10:00:21.020Z,35.96
2018-02-23T10:02:48.559Z,35.61
2018-02-23T10:05:15.978Z,35.42
2018-02-23T10:07:43.348Z,34.97
2018-02-23T10:10:10.722Z,35.03
2018-02-23T10:12:38.370Z,34.47
2018-02-23T10:15:05.757Z,34.99
2018-02-23T10:17:33.209Z,34.82
2018-02-23T10:20:00.590Z,34.67
2018-02-23T10:22:28.045Z,33.86
2018-02-23T10:24:55.454Z,34.27
2018-02-23T10:27:22.855Z,33.67
2018-02-23T10:29:50.297Z,33.68
2018-02-23T10:32:17.662Z,33.64
2018-02-23T10:34:45.056Z,33.27
2018-02-23T10:37:12.436Z,33.14
2018-02-23T10:39:39.890Z,32.87
2018-02-23T10:42:07.339Z,33.02
2018-02-23T10:44:34.724Z,32.93
2018-02-23T10:47:02.155Z,32.48
2018-02-23T10:49:33.724Z,32.52
2018-02-23T10:52:02.307Z,31.88
2018-02-23T10:54:29.745Z,31.80
2018-02-23T10:56:57.085Z,31.98
2018-02-23T10:59:24.464Z,32.17
2018-02-23T11:01:51.861Z,31.68
2018-02-23T11:04:19.249Z,31.86
2018-02-23T11:06:46.654Z,31.39
2018-02-23T11:09:14.078Z,31.30
2018-02-23T11:11:41.457Z,31.56
2018-02-23T11:14:08.872Z,31.73
2018-02-23T11:16:36.328Z,31.85
2018-02-23T11:19:03.726Z,31.49
2018-02-23T11:21:31.115Z,31.73
2018-02-23T11:23:58.515Z,31.22
2018-02-23T11:26:25.899Z,31.11
2018-02-23T11:28:53.315Z,31.43
2018-02-23T11:31:20.714Z,30.64
2018-02-23T11:33:49.012Z,30.81
2018-02-23T11:36:16.538Z,30.48
2018-02-23T11:38:43.911Z,30.44
2018-02-23T11:41:11.282Z,30.13
2018-02-23T11:43:38.666Z,30.20
2018-02-23T11:46:06.079Z,29.54
2018-02-23T11:48:33.461Z,29.27
2018-02-23T11:51:00.868Z,28.97
2018-02-23T11:53:28.292Z,28.62
2018-02-23T11:55:55.705Z,28.04
2018-02-23T11:58:23.070Z,27.94
2018-02-23T12:00:50.495Z,27.87
2018-02-23T12:03:17.858Z,27.23
2018-02-23T12:05:45.233Z,27.54
2018-02-23T12:08:12.752Z,26.69
2018-02-23T12:10:40.195Z,26.11
2018-02-23T12:13:07.764Z,26.97
2018-02-23T12:15:35.225Z,25.99
2018-02-23T12:18:02.701Z,25.58
2018-02-23T12:20:30.107Z,25.58
2018-02-23T12:22:57.490Z,25.37
2018-02-23T12:25:27.424Z,24.68
2018-02-23T12:27:56.058Z,24.09
2018-02-23T12:30:23.580Z,24.39
2018-02-23T12:32:51.090Z,23.35
2018-02-23T12:35:20.315Z,23.25
2018-02-23T12:37:47.766Z,22.74
2018-02-23T12:40:15.632Z,22.67
2018-02-23T12:42:43.134Z,22.76
2018-02-23T12:45:10.536Z,21.82
2018-02-23T12:47:37.983Z,23.21
2018-02-23T12:50:06.106Z,21.75
2018-02-23T12:52:33.496Z,21.62
2018-02-23T12:55:00.908Z,21.03
2018-02-23T12:57:28.395Z,20.94
2018-02-23T12:59:55.834Z,19.93
2018-02-23T13:02:23.265Z,20.18
2018-02-23T13:04:50.904Z,19.51
2018-02-23T13:07:19.429Z,19.47
2018-02-23T13:09:46.908Z,19.75
2018-02-23T13:12:14.521Z,18.54
2018-02-23T13:14:48.075Z,19.06
2018-02-23T13:17:15.448Z,17.94
2018-02-23T13:19:42.831Z,17.96
2018-02-23T13:22:10.692Z,18.45
2018-02-23T13:24:38.142Z,17.34
2018-02-23T13:27:11.055Z,16.81
2018-02-23T13:29:38.481Z,17.16
2018-02-23T13:32:05.867Z,16.16
2018-02-23T13:34:33.266Z,16.11
2018-02-23T13:37:00.677Z,16.14
2018-02-23T13:39:28.283Z,15.68
2018-02-23T13:41:55.830Z,15.97
2018-02-23T13:44:23.404Z,15.98
2018-02-23T13:46:52.679Z,15.40
2018-02-23T13:49:20.213Z,15.07
2018-02-23T13:51:50.163Z,15.48
2018-02-23T13:54:27.263Z,15.36
2018-02-23T13:56:54.634Z,15.06
2018-02-23T13:59:22.057Z,15.08
2018-02-23T14:01:49.754Z,14.67
2018-02-23T14:04:17.127Z,14.80
2018-02-23T14:06:48.473Z,15.39
2018-02-23T14:09:16.069Z,14.92
2018-02-23T14:11:43.450Z,14.53
2018-02-23T14:14:10.843Z,14.16
2018-02-23T14:16:39.583Z,14.58
2018-02-23T14:19:06.965Z,14.15
2018-02-23T14:21:35.010Z,14.60
2018-02-23T14:24:02.410Z,14.16
2018-02-23T14:26:29.850Z,14.62
2018-02-23T14:28:57.478Z,14.64
2018-02-23T14:31:24.883Z,15.01
2018-02-23T14:33:52.269Z,14.18
2018-02-23T14:36:20.210Z,14.04
2018-02-23T14:38:47.609Z,14.54
2018-02-23T14:41:14.992Z,14.54
2018-02-23T14:43:43.574Z,14.10
2018-02-23T14:46:10.971Z,13.85
2018-02-23T14:51:45.045Z,14.35
2018-02-23T14:54:22.811Z,14.61
2018-02-23T14:56:53.871Z,14.35
2018-02-23T14:59:21.461Z,14.08
2018-02-23T15:01:50.074Z,14.28
2018-02-23T15:04:17.446Z,14.22
2018-02-23T15:06:45.505Z,14.51
2018-02-23T15:09:12.897Z,14.97
2018-02-23T15:11:40.306Z,14.66
2018-02-23T15:14:07.898Z,15.15
2018-02-23T15:16:35.323Z,15.91
2018-02-23T15:19:02.891Z,16.71
2018-02-23T15:21:30.281Z,17.77
2018-02-23T15:23:57.708Z,18.31
2018-02-23T15:26:25.090Z,18.37
2018-02-23T15:28:52.723Z,18.91
2018-02-23T15:31:32.123Z,19.28
2018-02-23T15:33:59.501Z,20.12
2018-02-23T15:36:27.076Z,19.94
2018-02-23T15:38:54.635Z,20.00
2018-02-23T15:41:22.034Z,20.30
2018-02-23T15:43:50.237Z,20.76
2018-02-23T15:46:17.650Z,21.23
2018-02-23T15:48:46.567Z,21.17
2018-02-23T15:51:14.293Z,21.26
2018-02-23T15:53:41.723Z,21.04
2018-02-23T15:56:09.114Z,21.46
2018-02-23T15:58:37.484Z,22.02
2018-02-23T16:01:05.492Z,21.89
2018-02-23T16:03:32.899Z,22.09
2018-02-23T16:06:00.275Z,22.23
2018-02-23T16:08:27.689Z,22.46
2018-02-23T16:10:55.106Z,22.24
2018-02-23T16:13:22.506Z,22.32
2018-02-23T16:15:50.641Z,22.70
2018-02-23T16:18:18.054Z,22.17
2018-02-23T16:20:46.629Z,22.50
2018-02-23T16:23:15.010Z,22.79
2018-02-23T16:25:42.442Z,22.59
2018-02-23T16:28:13.630Z,22.90
2018-02-23T16:30:49.285Z,23.09
2018-02-23T16:33:17.008Z,22.68
2018-02-23T16:35:44.437Z,22.71
2018-02-23T16:38:11.916Z,22.90
2018-02-23T16:40:39.285Z,23.07
2018-02-23T16:43:06.974Z,22.91
2018-02-23T16:45:34.374Z,23.56
2018-02-23T16:48:01.874Z,23.59
2018-02-23T16:50:29.555Z,23.78
2018-02-23T16:52:56.986Z,23.85
2018-02-23T16:55:24.418Z,23.77
2018-02-23T16:57:51.808Z,23.76
2018-02-23T17:00:19.241Z,23.92
2018-02-23T17:02:46.562Z,23.81
2018-02-23T17:05:13.960Z,24.27
2018-02-23T17:07:41.342Z,25.70
2018-02-23T17:10:08.805Z,25.68
2018-02-23T17:12:36.281Z,25.84
2018-02-23T17:15:03.665Z,26.50
2018-02-23T17:17:31.063Z,26.33
2018-02-23T17:19:58.486Z,26.82
2018-02-23T17:22:25.868Z,26.60
2018-02-23T17:24:54.754Z,27.46
2018-02-23T17:27:22.151Z,27.93
2018-02-23T17:29:49.550Z,28.34
2018-02-23T17:32:16.990Z,28.28
2018-02-23T17:34:44.717Z,28.25
2018-02-23T17:37:12.177Z,28.46
2018-02-23T17:39:39.587Z,28.26
2018-02-23T17:42:06.971Z,28.25
2018-02-23T17:44:34.379Z,28.80
2018-02-23T17:47:03.056Z,28.60
2018-02-23T17:49:30.698Z,28.52
2018-02-23T17:51:58.092Z,28.65
2018-02-23T17:54:25.476Z,28.61
2018-02-23T17:56:52.930Z,28.73
2018-02-23T17:59:20.342Z,28.56
2018-02-23T18:01:47.726Z,28.69
2018-02-23T18:04:15.108Z,28.73
2018-02-23T18:06:42.505Z,28.45
2018-02-23T18:09:10.049Z,28.55
2018-02-23T18:11:37.578Z,28.51
2018-02-23T18:14:04.984Z,28.54
2018-02-23T18:16:34.453Z,29.04
2018-02-23T18:19:02.263Z,28.76
2018-02-23T18:21:31.480Z,28.72
2018-02-23T18:23:58.922Z,29.89
2018-02-23T18:26:26.279Z,29.76
2018-02-23T18:28:53.706Z,29.86
2018-02-23T18:31:21.096Z,29.60
2018-02-23T18:33:48.549Z,29.59
2018-02-23T18:36:16.171Z,30.02
2018-02-23T18:38:43.554Z,30.22
2018-02-23T18:41:10.945Z,29.73
2018-02-23T18:43:38.513Z,30.03
2018-02-23T18:46:08.460Z,29.15
2018-02-23T18:48:35.870Z,30.01
2018-02-23T18:51:03.311Z,30.82
2018-02-23T18:53:31.133Z,30.25
2018-02-23T18:55:58.515Z,30.46
2018-02-23T18:58:26.136Z,29.86
2018-02-23T19:00:53.513Z,30.26
2018-02-23T19:03:22.774Z,30.09
2018-02-23T19:05:50.149Z,30.73
2018-02-23T19:08:18.186Z,30.88
2018-02-23T19:10:45.612Z,31.16
2018-02-23T19:13:13.101Z,30.87
2018-02-23T19:15:40.501Z,30.86
2018-02-23T19:18:07.969Z,31.27
2018-02-23T19:20:35.370Z,32.00
2018-02-23T19:23:02.754Z,31.44
2018-02-23T19:25:30.620Z,31.40
2018-02-23T19:27:58.064Z,31.41
2018-02-23T19:30:25.454Z,31.84
2018-02-23T19:32:52.839Z,31.95
2018-02-23T19:35:20.232Z,31.61
2018-02-23T19:37:48.102Z,32.66
2018-02-23T19:40:15.777Z,32.36
2018-02-23T19:42:43.359Z,32.62
2018-02-23T19:45:10.855Z,33.10
2018-02-23T19:47:38.234Z,33.18
2018-02-23T19:50:05.656Z,33.42
2018-02-23T19:52:33.123Z,33.61
2018-02-23T19:55:00.709Z,33.34
2018-02-23T19:57:28.117Z,32.81
2018-02-23T19:59:55.506Z,32.88
2018-02-23T20:02:23.846Z,32.73
2018-02-23T20:04:51.768Z,33.11
2018-02-23T20:07:20.070Z,32.82
2018-02-23T20:09:47.509Z,32.93
2018-02-23T20:12:14.909Z,33.21
2018-02-23T20:14:42.299Z,32.74
2018-02-23T20:17:09.808Z,32.42
2018-02-23T20:19:37.185Z,33.43
2018-02-23T20:22:05.696Z,33.23
2018-02-23T20:24:33.066Z,33.67
2018-02-23T20:27:00.456Z,33.18
2018-02-23T20:29:27.874Z,33.35
2018-02-23T20:31:55.320Z,33.44
2018-02-23T20:34:22.713Z,33.32
2018-02-23T20:36:51.316Z,33.88
2018-02-23T20:39:18.687Z,34.15
2018-02-23T20:41:46.061Z,33.74
2018-02-23T20:44:13.461Z,33.65
2018-02-23T20:46:40.891Z,32.98
2018-02-23T20:49:08.336Z,33.21
2018-02-23T20:51:35.814Z,33.23
2018-02-23T20:54:03.486Z,33.13
2018-02-23T20:56:31.208Z,32.64
2018-02-23T20:58:58.578Z,32.81
2018-02-23T21:01:25.995Z,33.12
2018-02-23T21:03:53.366Z,32.84
2018-02-23T21:06:21.215Z,32.51
2018-02-23T21:08:49.379Z,32.39
2018-02-23T21:11:16.764Z,32.64
2018-02-23T21:13:44.158Z,33.01
2018-02-23T21:16:11.704Z,33.50
2018-02-23T21:18:39.492Z,33.52
2018-02-23T21:21:07.614Z,33.34
2018-02-23T21:23:34.987Z,33.62
2018-02-23T21:26:02.450Z,33.97
2018-02-23T21:28:29.844Z,33.72
2018-02-23T21:30:57.240Z,33.13
2018-02-23T21:33:24.947Z,33.12
2018-02-23T21:35:52.492Z,33.54
2018-02-23T21:38:21.703Z,33.45
2018-02-23T21:40:49.135Z,34.35
2018-02-23T21:43:17.585Z,33.75
2018-02-23T21:45:44.990Z,34.60
2018-02-23T21:48:12.769Z,34.13
2018-02-23T21:50:41.366Z,34.85
2018-02-23T21:53:08.756Z,34.81
2018-02-23T21:55:37.459Z,34.91
2018-02-23T21:58:05.466Z,35.00
2018-02-23T22:00:32.920Z,34.75
2018-02-23T22:03:00.539Z,34.83
2018-02-23T22:05:32.011Z,35.65
2018-02-23T22:07:59.918Z,35.39
2018-02-23T22:10:27.319Z,34.98
2018-02-23T22:12:54.707Z,35.37
2018-02-23T22:15:22.169Z,35.73
2018-02-23T22:17:49.538Z,35.54
2018-02-23T22:20:18.007Z,35.37
2018-02-23T22:22:45.626Z,35.09
2018-02-23T22:25:13.006Z,35.37
2018-02-23T22:27:40.391Z,35.68
2018-02-23T22:30:07.779Z,36.28
2018-02-23T22:32:37.378Z,36.01
2018-02-23T22:35:04.758Z,35.31
2018-02-23T22:37:32.175Z,35.89
2018-02-23T22:40:00.742Z,36.00
2018-02-23T22:42:28.717Z,35.49
2018-02-23T22:44:56.200Z,35.95
2018-02-23T22:47:23.609Z,35.22
2018-02-23T22:49:51.377Z,34.67
2018-02-23T22:52:19.018Z,34.32
2018-02-23T22:54:46.538Z,35.77
2018-02-23T22:57:13.983Z,35.42
2018-02-23T22:59:41.458Z,35.71
2018-02-23T23:02:09.163Z,35.89
2018-02-23T23:04:36.623Z,36.16
2018-02-23T23:07:20.261Z,36.77
2018-02-23T23:09:47.679Z,37.14
2018-02-23T23:12:15.079Z,36.24
2018-02-23T23:14:44.158Z,36.12
2018-02-23T23:17:12.589Z,37.16
2018-02-23T23:19:39.975Z,36.58
2018-02-23T23:22:07.352Z,36.93
2018-02-23T23:24:34.783Z,37.05
2018-02-23T23:27:02.175Z,37.15
2018-02-23T23:29:30.376Z,36.69
2018-02-23T23:31:58.867Z,36.26
2018-02-23T23:34:26.246Z,36.73
2018-02-23T23:36:53.638Z,36.64
2018-02-23T23:39:21.026Z,36.59
2018-02-23T23:41:48.431Z,36.99
2018-02-23T23:44:15.814Z,36.83
2018-02-23T23:46:43.237Z,36.71
2018-02-23T23:49:10.617Z,36.46
2018-02-23T23:51:38.026Z,36.34
2018-02-23T23:54:05.393Z,36.34
2018-02-23T23:56:33.265Z,35.76
2018-02-23T23:59:01.949Z,35.91
